createdAt,value
2019-05-12T00:00:15.102Z,93.22
2019-05-12T00:01:15.117Z,93.95
2019-05-12T00:02:15.066Z,94.05
2019-05-12T00:03:15.138Z,93.95
2019-05-12T00:04:15.045Z,93.74
2019-05-12T00:05:15.076Z,93.78
2019-05-12T00:06:15.026Z,93.95
2019-05-12T00:07:15.066Z,93.78
2019-05-12T00:08:15.014Z,93.74
2019-05-12T00:09:15.078Z,94.36
2019-05-12T00:10:15.000Z,94.15
2019-05-12T00:11:15.085Z,94.32
2019-05-12T00:12:14.963Z,94.21
2019-05-12T00:13:14.998Z,93.70
2019-05-12T00:14:14.936Z,93.38
2019-05-12T00:15:15.043Z,93.80
2019-05-12T00:16:14.919Z,93.80
2019-05-12T00:17:14.922Z,93.38
2019-05-12T00:18:14.895Z,93.59
2019-05-12T00:19:14.937Z,93.53
2019-05-12T00:20:14.888Z,93.84
2019-05-12T00:21:14.953Z,93.74
2019-05-12T00:22:14.857Z,93.84
2019-05-12T00:23:24.994Z,94.26
2019-05-12T00:24:15.828Z,94.05
2019-05-12T00:25:20.334Z,94.67
2019-05-12T00:26:14.810Z,93.84
2019-05-12T00:28:14.790Z,94.67
2019-05-12T00:29:14.807Z,94.51
2019-05-12T00:30:14.781Z,94.76
2019-05-12T00:31:14.813Z,95.07
2019-05-12T00:32:14.751Z,94.82
2019-05-12T00:33:17.986Z,95.07
2019-05-12T00:34:14.727Z,95.28
2019-05-12T00:35:14.769Z,95.07
2019-05-12T00:36:14.702Z,95.28
2019-05-12T00:37:14.754Z,95.28
2019-05-12T00:38:14.683Z,95.07
2019-05-12T00:39:14.766Z,96.11
2019-05-12T00:40:14.682Z,96.36
2019-05-12T00:41:14.679Z,96.11
2019-05-12T00:42:14.638Z,96.21
2019-05-12T00:43:14.694Z,96.31
2019-05-12T00:44:14.616Z,96.15
2019-05-12T00:45:14.734Z,96.15
2019-05-12T00:46:14.600Z,95.63
2019-05-12T00:47:14.616Z,96.47
2019-05-12T00:48:14.572Z,96.36
2019-05-12T00:49:14.632Z,96.36
2019-05-12T00:50:14.569Z,96.67
2019-05-12T00:51:14.645Z,96.47
2019-05-12T00:52:14.529Z,96.57
2019-05-12T00:53:14.556Z,96.92
2019-05-12T00:54:14.509Z,96.82
2019-05-12T00:55:14.601Z,96.92
2019-05-12T00:56:14.486Z,96.92
2019-05-12T00:57:14.588Z,97.17
2019-05-12T00:58:14.468Z,97.86
2019-05-12T00:59:14.497Z,97.34
2019-05-12T01:00:14.458Z,97.75
2019-05-12T01:01:14.507Z,97.86
2019-05-12T01:02:14.425Z,97.86
2019-05-12T01:03:14.522Z,97.80
2019-05-12T01:04:14.410Z,97.65
2019-05-12T01:05:14.771Z,97.86
2019-05-12T01:06:14.380Z,97.91
2019-05-12T01:07:14.447Z,98.01
2019-05-12T01:08:14.365Z,98.43
2019-05-12T01:09:14.463Z,98.22
2019-05-12T01:10:14.345Z,98.32
2019-05-12T01:11:14.404Z,98.22
2019-05-12T01:12:14.316Z,98.22
2019-05-12T01:13:14.391Z,97.80
2019-05-12T01:14:14.296Z,98.01
2019-05-12T01:15:14.398Z,98.22
2019-05-12T01:16:14.291Z,97.91
2019-05-12T01:17:14.324Z,98.01
2019-05-12T01:18:14.252Z,98.43
2019-05-12T01:19:14.332Z,98.63
2019-05-12T01:20:14.232Z,98.43
2019-05-12T01:21:14.267Z,98.01
2019-05-12T01:22:14.208Z,98.57
2019-05-12T01:23:14.251Z,99.10
2019-05-12T01:24:14.188Z,99.10
2019-05-12T01:25:14.271Z,98.78
2019-05-12T01:26:14.179Z,98.74
2019-05-12T01:27:14.179Z,99.10
2019-05-12T01:28:14.144Z,98.84
2019-05-12T01:29:14.192Z,98.63
2019-05-12T01:30:14.123Z,98.84
2019-05-12T01:31:14.234Z,98.53
2019-05-12T01:32:14.107Z,98.43
2019-05-12T01:33:14.116Z,98.84
2019-05-12T01:34:14.080Z,98.84
2019-05-12T01:35:14.139Z,98.84
2019-05-12T01:36:14.076Z,98.88
2019-05-12T01:37:14.144Z,98.78
2019-05-12T01:38:14.043Z,99.10
2019-05-12T01:39:14.056Z,98.68
2019-05-12T01:40:14.014Z,98.88
2019-05-12T01:41:14.102Z,98.78
2019-05-12T01:42:13.994Z,98.99
2019-05-12T01:43:14.103Z,98.57
2019-05-12T01:44:13.986Z,98.57
2019-05-12T01:45:13.989Z,98.99
2019-05-12T01:46:13.974Z,99.45
2019-05-12T01:47:14.004Z,99.24
2019-05-12T01:48:13.937Z,98.99
2019-05-12T01:49:14.023Z,98.99
2019-05-12T01:50:13.916Z,99.20
2019-05-12T01:51:13.960Z,99.04
2019-05-12T01:52:13.886Z,99.04
2019-05-12T01:53:13.941Z,98.93
2019-05-12T01:54:15.059Z,98.62
2019-05-12T01:55:13.962Z,99.35
2019-05-12T01:56:13.855Z,99.41
2019-05-12T01:57:19.331Z,98.88
2019-05-12T01:58:13.822Z,98.93
2019-05-12T01:59:15.931Z,99.55
2019-05-12T02:00:13.803Z,99.30
2019-05-12T02:01:21.884Z,99.41
2019-05-12T02:02:13.800Z,99.55
2019-05-12T02:03:13.809Z,99.35
2019-05-12T02:04:13.757Z,99.55
2019-05-12T02:05:20.384Z,99.66
2019-05-12T02:06:13.741Z,99.45
2019-05-12T02:07:13.763Z,99.99
2019-05-12T02:08:13.716Z,99.81
2019-05-12T02:09:13.745Z,99.66
2019-05-12T02:10:13.693Z,99.87
2019-05-12T02:11:13.763Z,99.99
2019-05-12T02:12:13.694Z,99.87
2019-05-12T02:13:13.777Z,99.99
2019-05-12T02:14:13.651Z,99.99
2019-05-12T02:15:13.684Z,99.99
2019-05-12T02:16:13.630Z,99.76
2019-05-12T02:17:13.730Z,99.99
2019-05-12T02:18:13.615Z,99.87
2019-05-12T02:19:13.711Z,99.71
2019-05-12T02:20:13.586Z,99.81
2019-05-12T02:21:13.634Z,99.99
2019-05-12T02:22:13.587Z,99.91
2019-05-12T02:23:13.646Z,99.91
2019-05-12T02:24:24.317Z,99.99
2019-05-12T02:25:14.532Z,99.99
2019-05-12T02:26:13.558Z,99.99
2019-05-12T02:27:13.528Z,99.99
2019-05-12T02:28:13.576Z,99.99
2019-05-12T02:29:13.491Z,99.99
2019-05-12T02:30:13.590Z,99.99
2019-05-12T02:31:13.471Z,99.99
2019-05-12T02:32:13.537Z,99.99
2019-05-12T02:33:15.970Z,99.99
2019-05-12T02:34:15.648Z,99.99
2019-05-12T02:35:16.111Z,99.99
2019-05-12T02:36:15.048Z,99.99
2019-05-12T02:37:15.369Z,99.99
2019-05-12T02:38:14.545Z,99.99
2019-05-12T02:39:15.067Z,99.99
2019-05-12T02:40:15.149Z,99.99
2019-05-12T02:41:15.499Z,99.99
2019-05-12T02:42:15.633Z,99.99
2019-05-12T02:43:15.350Z,99.99
2019-05-12T02:44:14.923Z,99.99
2019-05-12T02:45:15.362Z,99.99
2019-05-12T02:46:15.895Z,99.99
2019-05-12T02:47:16.012Z,99.99
2019-05-12T02:48:14.455Z,99.99
2019-05-12T02:49:15.627Z,99.99
2019-05-12T02:50:14.547Z,99.99
2019-05-12T02:51:15.550Z,99.99
2019-05-12T02:52:15.515Z,99.99
2019-05-12T02:53:14.431Z,99.99
2019-05-12T02:54:14.471Z,99.99
2019-05-12T02:55:15.028Z,99.99
2019-05-12T02:56:15.153Z,99.99
2019-05-12T02:57:14.307Z,99.99
2019-05-12T02:58:15.304Z,99.99
2019-05-12T02:59:15.432Z,99.99
2019-05-12T03:00:16.059Z,99.99
2019-05-12T03:01:15.306Z,99.99
2019-05-12T03:02:14.235Z,99.99
2019-05-12T03:03:14.580Z,99.99
2019-05-12T03:04:14.507Z,99.99
2019-05-12T03:05:14.845Z,99.99
2019-05-12T03:06:15.186Z,99.99
2019-05-12T03:07:15.279Z,99.99
2019-05-12T03:08:15.329Z,99.99
2019-05-12T03:09:15.083Z,99.99
2019-05-12T03:10:14.528Z,99.99
2019-05-12T03:11:14.855Z,99.99
2019-05-12T03:12:14.424Z,99.99
2019-05-12T03:13:14.882Z,99.99
2019-05-12T03:14:15.636Z,99.99
2019-05-12T03:15:15.196Z,99.99
2019-05-12T03:16:14.973Z,99.99
2019-05-12T03:17:15.343Z,99.99
2019-05-12T03:18:14.705Z,99.99
2019-05-12T03:19:14.958Z,99.99
2019-05-12T03:20:15.389Z,99.99
2019-05-12T03:21:15.287Z,99.99
2019-05-12T03:22:14.162Z,99.99
2019-05-12T03:23:15.414Z,99.99
2019-05-12T03:24:17.372Z,99.99
2019-05-12T03:25:20.990Z,99.99
2019-05-12T03:26:15.465Z,99.99
2019-05-12T03:27:14.597Z,99.99
2019-05-12T03:28:15.883Z,99.99
2019-05-12T03:29:14.837Z,99.99
2019-05-12T03:30:18.995Z,99.99
2019-05-12T03:31:22.308Z,99.99
2019-05-12T03:32:17.743Z,99.99
2019-05-12T03:33:19.007Z,99.99
2019-05-12T03:34:18.536Z,99.99
2019-05-12T03:35:20.893Z,99.99
2019-05-12T03:36:17.940Z,99.99
2019-05-12T03:37:17.830Z,99.99
2019-05-12T03:38:14.891Z,99.99
2019-05-12T03:39:15.164Z,99.99
2019-05-12T03:40:14.458Z,99.99
2019-05-12T03:41:14.669Z,99.99
2019-05-12T03:42:14.540Z,99.99
2019-05-12T03:43:14.631Z,99.99
2019-05-12T03:44:15.141Z,99.99
2019-05-12T03:45:15.035Z,99.99
2019-05-12T03:46:15.161Z,99.99
2019-05-12T03:47:14.451Z,99.99
2019-05-12T03:48:14.886Z,99.99
2019-05-12T03:49:15.326Z,99.99
2019-05-12T03:50:14.744Z,99.99
2019-05-12T03:51:15.434Z,99.99
2019-05-12T03:52:15.235Z,99.99
2019-05-12T03:53:15.722Z,99.99
2019-05-12T03:54:15.292Z,99.99
2019-05-12T03:55:30.749Z,99.99
2019-05-12T03:56:15.075Z,99.99
2019-05-12T03:57:14.986Z,99.99
2019-05-12T03:58:15.253Z,99.99
2019-05-12T03:59:14.925Z,99.99
2019-05-12T04:00:15.622Z,99.99
2019-05-12T04:01:15.001Z,99.99
2019-05-12T04:02:15.091Z,99.99
2019-05-12T04:03:15.296Z,99.99
2019-05-12T04:04:15.221Z,99.99
2019-05-12T04:05:15.444Z,99.99
2019-05-12T04:06:15.481Z,99.99
2019-05-12T04:07:15.053Z,99.99
2019-05-12T04:08:15.528Z,99.99
2019-05-12T04:09:15.175Z,99.99
2019-05-12T04:10:15.261Z,99.99
2019-05-12T04:11:14.529Z,99.99
2019-05-12T04:12:14.774Z,99.99
2019-05-12T04:13:15.131Z,99.99
2019-05-12T04:14:14.662Z,99.99
2019-05-12T04:15:15.106Z,99.99
2019-05-12T04:16:12.366Z,99.99
2019-05-12T04:17:14.982Z,99.99
2019-05-12T04:18:15.520Z,99.99
2019-05-12T04:19:14.648Z,99.99
2019-05-12T04:20:15.167Z,99.88
2019-05-12T04:21:15.249Z,99.99
2019-05-12T04:22:15.139Z,99.88
2019-05-12T04:23:14.948Z,99.99
2019-05-12T04:24:14.294Z,99.36
2019-05-12T04:25:14.600Z,99.36
2019-05-12T04:26:16.793Z,98.90
2019-05-12T04:27:15.101Z,99.11
2019-05-12T04:28:14.747Z,99.21
2019-05-12T04:29:15.300Z,98.48
2019-05-12T04:30:14.428Z,98.17
2019-05-12T04:31:15.260Z,98.33
2019-05-12T04:32:14.405Z,98.17
2019-05-12T04:33:15.172Z,97.92
2019-05-12T04:34:17.882Z,97.50
2019-05-12T04:35:14.840Z,97.81
2019-05-12T04:36:14.826Z,97.77
2019-05-12T04:37:14.698Z,97.45
2019-05-12T04:38:14.844Z,96.83
2019-05-12T04:39:14.753Z,96.89
2019-05-12T04:40:14.846Z,96.48
2019-05-12T04:41:14.536Z,96.17
2019-05-12T04:42:14.872Z,96.02
2019-05-12T04:43:14.554Z,95.46
2019-05-12T04:44:15.282Z,94.58
2019-05-12T04:45:15.254Z,93.91
2019-05-12T04:46:14.464Z,92.63
2019-05-12T04:47:14.597Z,91.14
2019-05-12T04:48:15.529Z,90.06
2019-05-12T04:49:15.679Z,88.78
2019-05-12T04:50:15.277Z,87.91
2019-05-12T04:51:15.162Z,86.73
2019-05-12T04:52:15.302Z,85.45
2019-05-12T04:53:14.374Z,86.44
2019-05-12T04:54:14.873Z,85.62
2019-05-12T04:55:14.690Z,83.20
2019-05-12T04:56:19.796Z,83.27
2019-05-12T04:57:14.979Z,81.79
2019-05-12T04:58:15.222Z,81.58
2019-05-12T04:59:15.344Z,79.69
2019-05-12T05:00:15.380Z,78.72
2019-05-12T05:01:15.157Z,78.93
2019-05-12T05:02:15.104Z,78.52
2019-05-12T05:03:14.204Z,78.07
2019-05-12T05:04:11.905Z,77.66
2019-05-12T05:05:14.484Z,77.11
2019-05-12T05:06:14.583Z,77.51
2019-05-12T05:07:14.794Z,77.07
2019-05-12T05:08:20.173Z,75.52
2019-05-12T05:09:14.457Z,75.52
2019-05-12T05:10:14.255Z,74.57
2019-05-12T05:11:14.514Z,74.67
2019-05-12T05:12:14.088Z,74.63
2019-05-12T05:13:11.731Z,74.84
2019-05-12T05:14:14.243Z,73.88
2019-05-12T05:15:14.398Z,73.78
2019-05-12T05:16:14.403Z,73.44
2019-05-12T05:17:11.689Z,72.31
2019-05-12T05:18:13.330Z,72.72
2019-05-12T05:19:13.312Z,73.71
2019-05-12T05:20:13.582Z,71.48
2019-05-12T05:21:13.711Z,71.38
2019-05-12T05:22:13.657Z,71.89
2019-05-12T05:23:13.919Z,71.93
2019-05-12T05:24:14.038Z,69.78
2019-05-12T05:25:11.615Z,70.39
2019-05-12T05:26:22.199Z,70.39
2019-05-12T05:27:13.302Z,70.29
2019-05-12T05:28:11.628Z,69.33
2019-05-12T05:29:13.560Z,68.82
2019-05-12T05:30:13.805Z,68.89
2019-05-12T05:31:13.888Z,68.17
2019-05-12T05:32:13.938Z,67.73
2019-05-12T05:33:11.517Z,67.02
2019-05-12T05:34:11.564Z,66.98
2019-05-12T05:35:13.255Z,66.88
2019-05-12T05:36:15.288Z,66.47
2019-05-12T05:37:14.515Z,66.67
2019-05-12T05:38:19.229Z,66.88
2019-05-12T05:39:13.926Z,66.13
2019-05-12T05:40:13.895Z,65.42
2019-05-12T05:41:13.409Z,65.69
2019-05-12T05:42:13.506Z,65.31
2019-05-12T05:43:12.957Z,65.18
2019-05-12T05:44:13.887Z,64.95
2019-05-12T05:45:21.356Z,65.83
2019-05-12T05:46:13.809Z,65.52
2019-05-12T05:47:13.758Z,65.59
2019-05-12T05:48:13.500Z,65.25
2019-05-12T05:49:13.329Z,64.51
2019-05-12T05:50:13.392Z,64.27
2019-05-12T05:51:13.755Z,62.92
2019-05-12T05:52:13.629Z,62.74
2019-05-12T05:53:20.303Z,62.95
2019-05-12T05:54:13.609Z,63.12
2019-05-12T05:55:18.112Z,62.61
2019-05-12T05:56:14.252Z,63.16
2019-05-12T05:57:20.053Z,62.35
2019-05-12T05:58:12.236Z,61.73
2019-05-12T05:59:11.330Z,61.53
2019-05-12T06:00:17.294Z,61.83
2019-05-12T06:01:13.753Z,61.30
2019-05-12T06:02:13.764Z,60.69
2019-05-12T06:03:14.903Z,60.76
2019-05-12T06:04:14.065Z,60.35
2019-05-12T06:05:11.269Z,60.25
2019-05-12T06:06:14.640Z,60.35
2019-05-12T06:07:11.176Z,60.25
2019-05-12T06:08:18.658Z,60.25
2019-05-12T06:09:14.156Z,60.35
2019-05-12T06:10:11.198Z,59.30
2019-05-12T06:11:14.691Z,59.61
2019-05-12T06:12:13.397Z,59.28
2019-05-12T06:13:11.115Z,57.82
2019-05-12T06:14:12.804Z,58.03
2019-05-12T06:15:13.404Z,58.56
2019-05-12T06:16:19.852Z,58.97
2019-05-12T06:17:14.486Z,57.54
2019-05-12T06:18:13.407Z,58.97
2019-05-12T06:19:11.001Z,58.74
2019-05-12T06:20:13.301Z,57.85
2019-05-12T06:21:10.993Z,58.67
2019-05-12T06:22:15.068Z,58.74
2019-05-12T06:23:14.524Z,59.17
2019-05-12T06:24:17.881Z,57.82
2019-05-12T06:25:15.704Z,57.82
2019-05-12T06:26:11.031Z,57.69
2019-05-12T06:27:18.652Z,57.49
2019-05-12T06:28:11.903Z,56.77
2019-05-12T06:29:11.415Z,58.46
2019-05-12T06:30:14.570Z,57.59
2019-05-12T06:31:10.963Z,57.43
2019-05-12T06:32:11.145Z,56.29
2019-05-12T06:33:10.950Z,55.48
2019-05-12T06:34:15.337Z,56.26
2019-05-12T06:35:11.827Z,55.96
2019-05-12T06:36:22.278Z,55.55
2019-05-12T06:37:16.578Z,55.25
2019-05-12T06:38:19.889Z,55.88
2019-05-12T06:39:19.097Z,57.00
2019-05-12T06:40:13.988Z,55.55
2019-05-12T06:41:12.707Z,56.90
2019-05-12T06:42:15.353Z,55.99
2019-05-12T06:43:13.951Z,55.88
2019-05-12T06:44:14.902Z,54.51
2019-05-12T06:45:13.971Z,55.22
2019-05-12T06:46:11.728Z,54.21
2019-05-12T06:47:11.709Z,53.09
2019-05-12T06:48:10.740Z,54.03
2019-05-12T06:49:15.374Z,55.27
2019-05-12T06:50:14.317Z,54.24
2019-05-12T06:51:15.462Z,54.44
2019-05-12T06:52:11.735Z,54.21
2019-05-12T06:53:10.627Z,54.39
2019-05-12T06:54:12.676Z,54.00
2019-05-12T06:55:10.608Z,53.47
2019-05-12T06:56:15.284Z,52.03
2019-05-12T06:57:22.275Z,51.22
2019-05-12T06:58:13.755Z,52.06
2019-05-12T06:59:12.338Z,51.78
2019-05-12T07:00:10.551Z,50.74
2019-05-12T07:01:16.710Z,51.86
2019-05-12T07:02:13.717Z,51.57
2019-05-12T07:03:10.536Z,52.31
2019-05-12T07:04:10.518Z,52.28
2019-05-12T07:05:10.550Z,52.48
2019-05-12T07:06:17.923Z,52.81
2019-05-12T07:07:11.493Z,52.59
2019-05-12T07:08:10.570Z,51.98
2019-05-12T07:10:13.130Z,51.73
2019-05-12T07:11:14.103Z,50.16
2019-05-12T07:12:10.526Z,51.25
2019-05-12T07:13:14.797Z,49.73
2019-05-12T07:14:18.844Z,49.86
2019-05-12T07:15:11.431Z,50.96
2019-05-12T07:16:16.623Z,51.90
2019-05-12T07:17:11.377Z,53.04
2019-05-12T07:18:10.451Z,53.60
2019-05-12T07:19:17.299Z,53.60
2019-05-12T07:20:11.331Z,53.98
2019-05-12T07:21:19.825Z,53.67
2019-05-12T07:22:19.975Z,53.70
2019-05-12T07:23:11.301Z,53.70
2019-05-12T07:24:34.148Z,53.85
2019-05-12T07:25:10.280Z,52.08
2019-05-12T07:26:14.106Z,52.86
2019-05-12T07:27:11.267Z,53.72
2019-05-12T07:28:10.300Z,54.59
2019-05-12T07:29:10.232Z,56.09
2019-05-12T07:30:10.311Z,54.31
2019-05-12T07:31:10.215Z,54.49
2019-05-12T07:32:16.594Z,53.19
2019-05-12T07:33:11.204Z,51.20
2019-05-12T07:34:10.184Z,48.72
2019-05-12T07:35:10.165Z,48.74
2019-05-12T07:36:10.251Z,50.31
2019-05-12T07:37:10.151Z,49.02
2019-05-12T07:38:12.147Z,48.49
2019-05-12T07:39:13.442Z,49.38
2019-05-12T07:40:10.176Z,49.13
2019-05-12T07:41:10.942Z,49.38
2019-05-12T07:42:10.193Z,48.67
2019-05-12T07:43:15.454Z,50.11
2019-05-12T07:44:11.065Z,48.69
2019-05-12T07:45:11.423Z,48.74
2019-05-12T07:46:13.226Z,49.72
2019-05-12T07:47:10.124Z,51.90
2019-05-12T07:48:10.573Z,52.35
2019-05-12T07:49:10.035Z,54.00
2019-05-12T07:50:15.442Z,54.00
2019-05-12T07:51:10.988Z,53.93
2019-05-12T07:52:11.082Z,55.18
2019-05-12T07:53:09.980Z,55.41
2019-05-12T07:54:10.071Z,56.09
2019-05-12T07:55:09.944Z,56.22
2019-05-12T07:56:09.987Z,55.12
2019-05-12T07:57:12.489Z,53.42
2019-05-12T07:58:15.574Z,51.87
2019-05-12T07:59:13.432Z,50.51
2019-05-12T08:00:11.351Z,49.19
2019-05-12T08:01:10.879Z,47.63
2019-05-12T08:02:09.933Z,48.27
2019-05-12T08:03:16.179Z,46.53
2019-05-12T08:04:10.855Z,47.35
2019-05-12T08:05:11.031Z,48.61
2019-05-12T08:06:10.824Z,48.83
2019-05-12T08:07:09.819Z,49.04
2019-05-12T08:08:11.040Z,48.18
2019-05-12T08:09:13.572Z,46.80
2019-05-12T08:10:15.933Z,47.08
2019-05-12T08:11:10.771Z,46.92
2019-05-12T08:12:15.272Z,47.82
2019-05-12T08:13:10.767Z,48.86
2019-05-12T08:14:13.787Z,50.00
2019-05-12T08:15:10.732Z,48.96
2019-05-12T08:16:09.830Z,48.83
2019-05-12T08:17:12.090Z,48.65
2019-05-12T08:18:10.783Z,47.15
2019-05-12T08:19:17.210Z,48.94
2019-05-12T08:20:10.671Z,48.82
2019-05-12T08:21:09.739Z,47.58
2019-05-12T08:22:09.659Z,45.71
2019-05-12T08:23:10.701Z,45.06
2019-05-12T08:24:09.643Z,44.27
2019-05-12T08:25:09.665Z,44.84
2019-05-12T08:26:16.182Z,44.92
2019-05-12T08:27:10.611Z,44.19
2019-05-12T08:28:15.585Z,43.14
2019-05-12T08:29:15.818Z,40.92
2019-05-12T08:30:10.572Z,39.68
2019-05-12T08:31:09.604Z,40.10
2019-05-12T08:32:14.800Z,41.49
2019-05-12T08:33:10.644Z,42.21
2019-05-12T08:34:09.533Z,41.61
2019-05-12T08:35:09.533Z,44.01
2019-05-12T08:36:11.672Z,44.56
2019-05-12T08:37:09.542Z,45.79
2019-05-12T08:38:09.478Z,46.83
2019-05-12T08:39:11.802Z,46.68
2019-05-12T08:40:10.451Z,45.61
2019-05-12T08:41:09.476Z,45.96
2019-05-12T08:42:09.430Z,44.87
2019-05-12T08:43:10.767Z,45.09
2019-05-12T08:44:09.436Z,47.64
2019-05-12T08:45:15.148Z,44.52
2019-05-12T08:46:12.802Z,43.43
2019-05-12T08:47:12.149Z,42.35
2019-05-12T08:48:16.029Z,43.48
2019-05-12T08:49:10.378Z,42.01
2019-05-12T08:50:10.455Z,41.59
2019-05-12T08:51:13.973Z,43.14
2019-05-12T08:52:11.391Z,42.66
2019-05-12T08:53:14.469Z,43.18
2019-05-12T08:54:10.323Z,42.88
2019-05-12T08:56:13.058Z,43.10
2019-05-12T08:57:10.265Z,42.03
2019-05-12T08:58:09.279Z,40.60
2019-05-12T08:59:14.370Z,41.95
2019-05-12T09:00:10.323Z,42.88
2019-05-12T09:01:09.230Z,42.90
2019-05-12T09:02:10.780Z,42.33
2019-05-12T09:03:09.217Z,45.10
2019-05-12T09:04:14.641Z,45.83
2019-05-12T09:05:10.200Z,46.36
2019-05-12T09:06:14.415Z,46.79
2019-05-12T09:07:10.165Z,47.19
2019-05-12T09:08:09.247Z,46.71
2019-05-12T09:09:09.163Z,47.22
2019-05-12T09:10:09.163Z,47.22
2019-05-12T09:11:09.120Z,48.55
2019-05-12T09:12:09.174Z,47.06
2019-05-12T09:13:09.094Z,48.39
2019-05-12T09:14:09.109Z,45.93
2019-05-12T09:15:09.074Z,42.50
2019-05-12T09:16:09.796Z,43.42
2019-05-12T09:17:09.047Z,39.65
2019-05-12T09:18:09.113Z,41.65
2019-05-12T09:19:10.087Z,42.78
2019-05-12T09:20:10.049Z,42.94
2019-05-12T09:21:09.002Z,45.61
2019-05-12T09:22:16.531Z,46.16
2019-05-12T09:23:09.985Z,47.30
2019-05-12T09:24:13.688Z,46.94
2019-05-12T09:25:09.958Z,47.56
2019-05-12T09:26:09.068Z,48.68
2019-05-12T09:27:09.128Z,49.27
2019-05-12T09:28:08.970Z,47.16
2019-05-12T09:29:08.969Z,48.48
2019-05-12T09:30:09.831Z,47.02
2019-05-12T09:31:08.900Z,46.38
2019-05-12T09:32:09.682Z,46.10
2019-05-12T09:33:08.874Z,47.24
2019-05-12T09:34:11.591Z,47.14
2019-05-12T09:35:08.872Z,46.77
2019-05-12T09:36:11.279Z,44.34
2019-05-12T09:37:09.824Z,42.33
2019-05-12T09:38:11.412Z,40.34
2019-05-12T09:39:09.807Z,38.58
2019-05-12T09:40:10.825Z,38.09
2019-05-12T09:41:08.782Z,37.47
2019-05-12T09:42:09.783Z,36.95
2019-05-12T09:43:10.638Z,36.72
2019-05-12T09:44:08.773Z,36.28
2019-05-12T09:45:10.481Z,36.41
2019-05-12T09:46:08.787Z,37.44
2019-05-12T09:47:21.792Z,37.10
2019-05-12T09:48:09.716Z,36.76
2019-05-12T09:49:08.809Z,36.65
2019-05-12T09:50:09.791Z,38.68
2019-05-12T09:51:09.742Z,37.72
2019-05-12T09:52:13.962Z,37.84
2019-05-12T09:53:11.506Z,39.32
2019-05-12T09:54:08.742Z,40.36
2019-05-12T09:55:08.643Z,41.33
2019-05-12T09:56:08.650Z,43.08
2019-05-12T09:57:08.609Z,44.35
2019-05-12T09:58:14.144Z,45.41
2019-05-12T09:59:17.916Z,45.86
2019-05-12T10:00:09.586Z,47.70
2019-05-12T10:01:08.601Z,48.23
2019-05-12T10:02:10.443Z,48.33
2019-05-12T10:03:09.621Z,48.33
2019-05-12T10:04:10.447Z,48.55
2019-05-12T10:05:09.567Z,48.88
2019-05-12T10:06:11.469Z,48.50
2019-05-12T10:07:09.501Z,49.72
2019-05-12T10:08:08.529Z,52.05
2019-05-12T10:09:08.930Z,51.16
2019-05-12T10:10:09.504Z,50.33
2019-05-12T10:11:10.426Z,48.87
2019-05-12T10:12:09.479Z,46.13
2019-05-12T10:13:08.432Z,45.74
2019-05-12T10:14:10.756Z,42.76
2019-05-12T10:15:08.427Z,40.48
2019-05-12T10:16:08.940Z,39.18
2019-05-12T10:17:08.391Z,39.06
2019-05-12T10:18:10.973Z,37.85
2019-05-12T10:19:08.365Z,38.04
2019-05-12T10:20:08.409Z,38.44
2019-05-12T10:21:13.382Z,39.18
2019-05-12T10:22:29.974Z,37.37
2019-05-12T10:23:10.151Z,37.65
2019-05-12T10:24:08.330Z,37.95
2019-05-12T10:25:08.311Z,34.96
2019-05-12T10:26:11.595Z,36.80
2019-05-12T10:27:08.281Z,38.11
2019-05-12T10:28:13.028Z,37.99
2019-05-12T10:29:17.633Z,37.77
2019-05-12T10:30:12.244Z,38.43
2019-05-12T10:31:08.305Z,39.28
2019-05-12T10:32:10.366Z,39.34
2019-05-12T10:33:08.291Z,38.09
2019-05-12T10:34:08.203Z,37.74
2019-05-12T10:35:12.662Z,37.47
2019-05-12T10:36:09.200Z,40.20
2019-05-12T10:37:08.216Z,43.18
2019-05-12T10:38:10.696Z,43.23
2019-05-12T10:39:08.231Z,44.76
2019-05-12T10:40:08.134Z,44.25
2019-05-12T10:41:08.169Z,44.78
2019-05-12T10:42:08.111Z,46.30
2019-05-12T10:43:08.155Z,46.40
2019-05-12T10:44:08.090Z,47.35
2019-05-12T10:45:10.830Z,49.19
2019-05-12T10:46:09.081Z,48.61
2019-05-12T10:47:08.079Z,49.62
2019-05-12T10:48:08.048Z,48.23
2019-05-12T10:49:08.092Z,49.06
2019-05-12T10:50:08.028Z,50.26
2019-05-12T10:51:08.144Z,48.33
2019-05-12T10:52:08.008Z,48.71
2019-05-12T10:53:09.791Z,47.98
2019-05-12T10:54:13.107Z,47.88
2019-05-12T10:55:09.054Z,47.98
2019-05-12T10:56:08.257Z,47.47
2019-05-12T10:57:08.047Z,47.58
2019-05-12T10:58:07.942Z,48.11
2019-05-12T10:59:07.959Z,47.70
2019-05-12T11:00:07.917Z,46.77
2019-05-12T11:01:08.691Z,48.26
2019-05-12T11:02:07.914Z,47.63
2019-05-12T11:03:12.209Z,46.91
2019-05-12T11:04:07.872Z,44.85
2019-05-12T11:05:21.121Z,42.66
2019-05-12T11:06:08.858Z,39.69
2019-05-12T11:07:09.890Z,40.13
2019-05-12T11:08:10.978Z,36.60
2019-05-12T11:09:07.924Z,37.08
2019-05-12T11:10:15.470Z,35.61
2019-05-12T11:11:08.797Z,36.58
2019-05-12T11:12:07.810Z,37.56
2019-05-12T11:13:09.872Z,38.00
2019-05-12T11:14:07.856Z,40.01
2019-05-12T11:15:08.514Z,41.55
2019-05-12T11:16:07.767Z,42.07
2019-05-12T11:17:09.460Z,41.18
2019-05-12T11:18:07.781Z,42.29
2019-05-12T11:19:10.466Z,42.41
2019-05-12T11:20:07.797Z,43.52
2019-05-12T11:21:07.696Z,42.32
2019-05-12T11:22:08.244Z,42.52
2019-05-12T11:23:07.667Z,41.46
2019-05-12T11:24:07.719Z,43.71
2019-05-12T11:25:07.669Z,44.44
2019-05-12T11:26:07.735Z,45.04
2019-05-12T11:27:07.634Z,46.26
2019-05-12T11:28:07.643Z,45.59
2019-05-12T11:29:07.603Z,47.11
2019-05-12T11:30:07.656Z,46.02
2019-05-12T11:31:07.629Z,46.86
2019-05-12T11:32:07.603Z,49.19
2019-05-12T11:33:07.557Z,48.30
2019-05-12T11:34:07.584Z,49.19
2019-05-12T11:35:07.537Z,50.00
2019-05-12T11:36:07.595Z,49.29
2019-05-12T11:37:07.527Z,49.29
2019-05-12T11:38:07.609Z,49.39
2019-05-12T11:39:07.490Z,50.60
2019-05-12T11:40:07.520Z,50.93
2019-05-12T11:41:10.147Z,52.40
2019-05-12T11:42:08.591Z,53.12
2019-05-12T11:43:07.447Z,52.05
2019-05-12T11:44:07.548Z,49.93
2019-05-12T11:45:07.430Z,46.59
2019-05-12T11:46:07.467Z,45.54
2019-05-12T11:47:07.409Z,43.59
2019-05-12T11:48:10.133Z,44.13
2019-05-12T11:49:09.504Z,44.98
2019-05-12T11:50:14.347Z,46.76
2019-05-12T11:51:07.358Z,47.00
2019-05-12T11:52:18.440Z,50.49
2019-05-12T11:53:07.365Z,48.59
2019-05-12T11:54:10.841Z,48.69
2019-05-12T11:55:07.314Z,47.54
2019-05-12T11:56:07.913Z,46.06
2019-05-12T11:57:07.298Z,43.77
2019-05-12T11:58:11.373Z,44.25
2019-05-12T11:59:07.274Z,44.75
2019-05-12T12:00:07.351Z,43.14
2019-05-12T12:01:08.363Z,42.74
2019-05-12T12:02:07.264Z,42.70
2019-05-12T12:03:12.681Z,42.50
2019-05-12T12:04:08.299Z,42.68
2019-05-12T12:05:07.253Z,40.70
2019-05-12T12:06:07.292Z,40.95
2019-05-12T12:07:07.187Z,39.61
2019-05-12T12:08:07.242Z,37.75
2019-05-12T12:09:09.074Z,36.99
2019-05-12T12:10:08.239Z,37.27
2019-05-12T12:11:10.520Z,39.40
2019-05-12T12:12:08.201Z,42.88
2019-05-12T12:13:07.165Z,43.02
2019-05-12T12:14:10.488Z,43.12
2019-05-12T12:15:07.146Z,43.02
2019-05-12T12:16:11.137Z,44.13
2019-05-12T12:17:07.159Z,43.85
2019-05-12T12:18:13.097Z,44.49
2019-05-12T12:19:08.124Z,43.32
2019-05-12T12:20:07.046Z,42.25
2019-05-12T12:21:07.906Z,44.07
2019-05-12T12:22:07.019Z,44.60
2019-05-12T12:23:10.981Z,46.84
2019-05-12T12:24:07.004Z,46.34
2019-05-12T12:25:10.892Z,46.36
2019-05-12T12:26:07.976Z,46.71
2019-05-12T12:27:07.045Z,47.26
2019-05-12T12:28:07.055Z,47.38
2019-05-12T12:29:07.039Z,48.19
2019-05-12T12:30:18.613Z,46.98
2019-05-12T12:31:07.981Z,48.07
2019-05-12T12:32:10.000Z,47.03
2019-05-12T12:33:07.910Z,48.54
2019-05-12T12:34:07.993Z,47.52
2019-05-12T12:35:10.990Z,47.02
2019-05-12T12:36:14.867Z,45.90
2019-05-12T12:37:06.852Z,45.27
2019-05-12T12:38:08.869Z,44.64
2019-05-12T12:39:06.831Z,45.96
2019-05-12T12:40:08.863Z,44.96
2019-05-12T12:41:06.812Z,46.26
2019-05-12T12:42:06.803Z,44.66
2019-05-12T12:43:06.832Z,45.59
2019-05-12T12:44:06.832Z,46.73
2019-05-12T12:45:06.765Z,46.65
2019-05-12T12:46:10.604Z,48.30
2019-05-12T12:47:07.741Z,48.42
2019-05-12T12:48:06.762Z,48.42
2019-05-12T12:49:10.365Z,48.95
2019-05-12T12:50:06.772Z,48.04
2019-05-12T12:51:06.706Z,48.87
2019-05-12T12:52:06.785Z,48.16
2019-05-12T12:53:06.683Z,47.66
2019-05-12T12:54:06.727Z,47.83
2019-05-12T12:55:08.427Z,49.46